createdAt,value
2018-12-23T00:02:24.622Z,8.67
2018-12-23T00:04:53.097Z,8.62
2018-12-23T00:07:21.614Z,8.60
2018-12-23T00:09:50.141Z,8.66
2018-12-23T00:12:18.863Z,8.65
2018-12-23T00:14:47.336Z,8.76
2018-12-23T00:17:15.830Z,8.74
2018-12-23T00:19:44.454Z,8.68
2018-12-23T00:22:12.936Z,8.42
2018-12-23T00:24:41.499Z,8.75
2018-12-23T00:27:10.010Z,8.62
2018-12-23T00:29:39.136Z,8.56
2018-12-23T00:32:07.841Z,8.67
2018-12-23T00:34:36.349Z,8.73
2018-12-23T00:37:04.930Z,8.62
2018-12-23T00:39:33.357Z,8.67
2018-12-23T00:42:01.897Z,8.74
2018-12-23T00:44:30.427Z,8.75
2018-12-23T00:47:00.155Z,8.77
2018-12-23T00:49:28.711Z,8.87
2018-12-23T00:51:57.311Z,8.78
2018-12-23T00:54:26.784Z,8.66
2018-12-23T00:56:55.219Z,8.78
2018-12-23T00:59:23.738Z,8.72
2018-12-23T01:01:52.235Z,8.79
2018-12-23T01:04:20.786Z,8.66
2018-12-23T01:06:49.224Z,8.69
2018-12-23T01:09:17.782Z,8.69
2018-12-23T01:11:46.367Z,8.55
2018-12-23T01:14:14.949Z,8.55
2018-12-23T01:16:43.461Z,8.51
2018-12-23T01:19:12.366Z,8.45
2018-12-23T01:21:41.256Z,8.59
2018-12-23T01:24:09.693Z,8.49
2018-12-23T01:26:38.161Z,8.63
2018-12-23T01:29:06.636Z,8.66
2018-12-23T01:31:35.092Z,8.56
2018-12-23T01:34:05.388Z,8.53
2018-12-23T01:36:34.167Z,8.23
2018-12-23T01:39:02.786Z,8.52
2018-12-23T01:41:32.368Z,8.49
2018-12-23T01:44:00.981Z,8.42
2018-12-23T01:46:29.485Z,8.45
2018-12-23T01:48:58.566Z,8.53
2018-12-23T01:51:27.043Z,8.49
2018-12-23T01:53:55.545Z,8.44
2018-12-23T01:56:24.119Z,8.48
2018-12-23T01:58:52.566Z,8.56
2018-12-23T02:01:22.033Z,8.53
2018-12-23T02:03:50.582Z,8.46
2018-12-23T02:06:19.653Z,8.57
2018-12-23T02:08:48.149Z,8.63
2018-12-23T02:11:16.592Z,8.44
2018-12-23T02:13:45.133Z,8.42
2018-12-23T02:16:14.366Z,8.39
2018-12-23T02:18:43.637Z,8.34
2018-12-23T02:21:12.171Z,8.44
2018-12-23T02:23:40.906Z,8.35
2018-12-23T02:26:09.573Z,8.28
2018-12-23T02:28:40.688Z,8.44
2018-12-23T02:31:09.162Z,8.43
2018-12-23T02:33:37.919Z,8.40
2018-12-23T02:36:06.339Z,8.38
2018-12-23T02:38:35.534Z,8.35
2018-12-23T02:41:04.032Z,8.28
2018-12-23T02:43:32.507Z,8.22
2018-12-23T02:46:01.111Z,8.23
2018-12-23T02:48:29.594Z,8.21
2018-12-23T02:50:58.781Z,8.23
2018-12-23T02:53:27.257Z,8.17
2018-12-23T02:55:55.806Z,8.20
2018-12-23T02:58:24.253Z,8.11
2018-12-23T03:00:52.741Z,8.25
2018-12-23T03:03:21.348Z,8.23
2018-12-23T03:05:49.893Z,8.20
2018-12-23T03:08:19.141Z,8.17
2018-12-23T03:10:47.688Z,8.22
2018-12-23T03:13:16.232Z,8.18
2018-12-23T03:15:44.774Z,8.16
2018-12-23T03:18:13.196Z,8.07
2018-12-23T03:20:41.777Z,8.05
2018-12-23T03:23:10.245Z,8.22
2018-12-23T03:25:38.714Z,8.13
2018-12-23T03:28:07.733Z,8.24
2018-12-23T03:30:36.275Z,8.10
2018-12-23T03:33:04.812Z,8.17
2018-12-23T03:35:33.286Z,8.25
2018-12-23T03:38:02.572Z,8.05
2018-12-23T03:40:31.184Z,8.13
2018-12-23T03:42:59.652Z,8.15
2018-12-23T03:45:28.105Z,8.10
2018-12-23T03:47:56.806Z,8.17
2018-12-23T03:50:25.293Z,8.28
2018-12-23T03:52:53.898Z,8.30
2018-12-23T03:55:22.627Z,8.28
2018-12-23T03:57:51.114Z,8.20
2018-12-23T04:00:19.707Z,8.29
2018-12-23T04:02:48.298Z,8.32
2018-12-23T04:05:16.814Z,8.22
2018-12-23T04:07:45.248Z,8.21
2018-12-23T04:10:13.826Z,8.21
2018-12-23T04:12:42.264Z,8.11
2018-12-23T04:15:11.003Z,8.27
2018-12-23T04:17:39.654Z,8.31
2018-12-23T04:20:08.138Z,8.19
2018-12-23T04:22:36.643Z,8.25
2018-12-23T04:25:05.510Z,8.18
2018-12-23T04:27:33.971Z,8.26
2018-12-23T04:30:02.937Z,8.30
2018-12-23T04:32:31.520Z,8.21
2018-12-23T04:35:00.050Z,8.19
2018-12-23T04:37:29.368Z,8.15
2018-12-23T04:39:57.834Z,8.22
2018-12-23T04:42:26.381Z,8.28
2018-12-23T04:44:54.999Z,8.21
2018-12-23T04:47:23.582Z,8.14
2018-12-23T04:49:53.085Z,8.30
2018-12-23T04:52:21.558Z,8.21
2018-12-23T04:54:50.133Z,8.19
2018-12-23T04:57:19.270Z,8.21
2018-12-23T04:59:47.720Z,8.22
2018-12-23T05:02:16.885Z,8.28
2018-12-23T05:04:45.633Z,8.37
2018-12-23T05:07:15.236Z,8.25
2018-12-23T05:09:45.264Z,8.17
2018-12-23T05:12:13.833Z,8.18
2018-12-23T05:14:44.677Z,8.10
2018-12-23T05:17:12.861Z,8.22
2018-12-23T05:19:41.521Z,8.44
2018-12-23T05:22:10.371Z,8.40
2018-12-23T05:24:38.889Z,8.43
2018-12-23T05:27:07.442Z,8.47
2018-12-23T05:29:36.392Z,8.44
2018-12-23T05:32:05.470Z,8.55
2018-12-23T05:34:34.562Z,8.38
2018-12-23T05:37:03.133Z,8.37
2018-12-23T05:39:31.673Z,8.26
2018-12-23T05:42:00.775Z,8.31
2018-12-23T05:44:29.247Z,8.18
2018-12-23T05:47:00.021Z,8.21
2018-12-23T05:49:28.464Z,8.15
2018-12-23T05:51:56.953Z,8.20
2018-12-23T05:54:25.385Z,8.09
2018-12-23T05:56:54.014Z,8.10
2018-12-23T05:59:22.490Z,8.07
2018-12-23T06:01:51.012Z,8.15
2018-12-23T06:04:19.542Z,8.12
2018-12-23T06:06:48.030Z,8.06
2018-12-23T06:09:17.846Z,8.07
2018-12-23T06:11:47.015Z,7.91
2018-12-23T06:14:15.640Z,7.91
2018-12-23T06:16:44.218Z,7.98
2018-12-23T06:19:12.685Z,7.95
2018-12-23T06:21:41.205Z,7.96
2018-12-23T06:24:09.815Z,7.93
2018-12-23T06:26:38.257Z,7.95
2018-12-23T06:29:06.819Z,8.03
2018-12-23T06:31:35.389Z,8.14
2018-12-23T06:34:04.069Z,8.27
2018-12-23T06:36:33.246Z,8.09
2018-12-23T06:39:02.057Z,8.31
2018-12-23T06:41:30.661Z,8.23
2018-12-23T06:44:00.121Z,8.41
2018-12-23T06:46:28.791Z,8.30
2018-12-23T06:48:57.594Z,8.40
2018-12-23T06:51:26.224Z,8.16
2018-12-23T06:53:54.710Z,8.33
2018-12-23T06:56:23.206Z,8.24
2018-12-23T06:58:51.734Z,8.43
2018-12-23T07:01:21.125Z,8.31
2018-12-23T07:03:50.160Z,8.32
2018-12-23T07:06:18.702Z,8.21
2018-12-23T07:08:47.187Z,8.30
2018-12-23T07:11:15.711Z,8.38
2018-12-23T07:13:44.167Z,8.34
2018-12-23T07:16:12.787Z,8.31
2018-12-23T07:18:41.413Z,8.34
2018-12-23T07:21:09.906Z,8.24
2018-12-23T07:23:38.411Z,8.36
2018-12-23T07:26:06.974Z,8.25
2018-12-23T07:28:35.510Z,8.24
2018-12-23T07:31:04.061Z,8.33
2018-12-23T07:33:32.630Z,8.40
2018-12-23T07:36:01.327Z,8.41
2018-12-23T07:38:30.037Z,8.37
2018-12-23T07:40:58.695Z,8.27
2018-12-23T07:43:27.204Z,8.39
2018-12-23T07:45:55.710Z,8.44
2018-12-23T07:48:24.432Z,8.27
2018-12-23T07:50:53.845Z,8.29
2018-12-23T07:53:22.494Z,8.28
2018-12-23T07:55:51.893Z,8.38
2018-12-23T07:58:20.775Z,8.25
2018-12-23T08:00:49.766Z,8.31
2018-12-23T08:03:18.301Z,8.45
2018-12-23T08:05:46.777Z,8.40
2018-12-23T08:08:15.329Z,8.47
2018-12-23T08:10:44.077Z,8.30
2018-12-23T08:13:12.662Z,8.40
2018-12-23T08:15:41.327Z,8.38
2018-12-23T08:18:10.340Z,8.34
2018-12-23T08:20:38.793Z,8.35
2018-12-23T08:23:07.318Z,8.26
2018-12-23T08:25:36.010Z,8.57
2018-12-23T08:28:04.727Z,8.43
2018-12-23T08:30:33.314Z,8.36
2018-12-23T08:33:02.619Z,8.50
2018-12-23T08:35:31.117Z,8.54
2018-12-23T08:37:59.602Z,8.58
2018-12-23T08:40:28.161Z,8.50
2018-12-23T08:42:56.723Z,8.54
2018-12-23T08:45:25.164Z,8.57
2018-12-23T08:47:53.693Z,8.55
2018-12-23T08:50:22.497Z,8.68
2018-12-23T08:52:50.932Z,8.57
2018-12-23T08:55:19.502Z,8.52
2018-12-23T08:57:48.070Z,8.59
2018-12-23T09:00:16.664Z,8.82
2018-12-23T09:02:45.132Z,8.70
2018-12-23T09:05:14.379Z,8.76
2018-12-23T09:07:42.856Z,8.83
2018-12-23T09:10:11.473Z,8.92
2018-12-23T09:12:40.010Z,8.75
2018-12-23T09:15:08.534Z,8.87
2018-12-23T09:17:37.040Z,8.79
2018-12-23T09:20:05.705Z,9.15
2018-12-23T09:22:34.274Z,8.98
2018-12-23T09:25:02.929Z,8.89
2018-12-23T09:27:31.510Z,9.09
2018-12-23T09:30:00.333Z,9.13
2018-12-23T09:32:28.830Z,9.16
2018-12-23T09:34:58.678Z,9.10
2018-12-23T09:37:28.670Z,9.35
2018-12-23T09:39:58.308Z,9.39
2018-12-23T09:42:30.207Z,9.09
2018-12-23T09:45:00.575Z,8.99
2018-12-23T09:47:31.839Z,9.07
2018-12-23T09:50:00.920Z,9.10
2018-12-23T09:52:29.512Z,9.17
2018-12-23T09:54:58.152Z,9.21
2018-12-23T09:57:26.701Z,9.29
2018-12-23T09:59:55.454Z,9.31
2018-12-23T10:02:25.415Z,9.38
2018-12-23T10:04:53.976Z,8.13
2018-12-23T10:07:23.152Z,9.36
2018-12-23T10:09:52.036Z,9.41
2018-12-23T10:12:21.600Z,9.50
2018-12-23T10:14:50.305Z,9.60
2018-12-23T10:17:19.800Z,9.56
2018-12-23T10:19:48.462Z,9.51
2018-12-23T10:22:17.712Z,9.47
2018-12-23T10:24:48.729Z,9.52
2018-12-23T10:27:17.552Z,9.67
2018-12-23T10:29:46.237Z,9.57
2018-12-23T10:32:15.616Z,9.59
2018-12-23T10:34:44.178Z,9.46
2018-12-23T10:37:12.903Z,9.71
2018-12-23T10:39:42.213Z,9.39
2018-12-23T10:42:10.974Z,9.49
2018-12-23T10:44:40.430Z,9.40
2018-12-23T10:47:08.960Z,9.39
2018-12-23T10:49:37.526Z,9.53
2018-12-23T10:52:06.396Z,9.56
2018-12-23T10:54:36.274Z,9.28
2018-12-23T10:57:04.972Z,9.16
2018-12-23T10:59:34.221Z,9.36
2018-12-23T11:02:02.806Z,9.32
2018-12-23T11:04:31.385Z,9.41
2018-12-23T11:07:00.157Z,9.37
2018-12-23T11:09:29.027Z,9.34
2018-12-23T11:11:58.438Z,9.28
2018-12-23T11:14:28.410Z,9.31
2018-12-23T11:16:57.579Z,9.24
2018-12-23T11:19:26.335Z,9.03
2018-12-23T11:21:54.821Z,8.99
2018-12-23T11:24:23.331Z,9.00
2018-12-23T11:26:53.833Z,9.28
2018-12-23T11:29:23.488Z,9.20
2018-12-23T11:31:51.973Z,9.08
2018-12-23T11:34:20.588Z,9.18
2018-12-23T11:36:49.016Z,9.25
2018-12-23T11:39:17.549Z,9.22
2018-12-23T11:41:46.013Z,9.59
2018-12-23T11:44:16.041Z,9.38
2018-12-23T11:46:44.577Z,9.46
2018-12-23T11:49:46.367Z,9.48
2018-12-23T11:52:15.945Z,9.29
2018-12-23T11:54:45.448Z,9.11
2018-12-23T11:57:14.910Z,9.31
2018-12-23T11:59:44.420Z,8.87
2018-12-23T12:02:15.321Z,8.85
2018-12-23T12:04:45.095Z,8.82
2018-12-23T12:07:14.718Z,8.75
2018-12-23T12:09:44.385Z,8.81
2018-12-23T12:12:13.872Z,8.70
2018-12-23T12:14:43.389Z,8.73
2018-12-23T12:17:12.869Z,8.85
2018-12-23T12:19:43.601Z,8.91
2018-12-23T12:22:13.060Z,9.07
2018-12-23T12:24:42.654Z,9.13
2018-12-23T12:27:12.131Z,9.03
2018-12-23T12:29:41.613Z,9.16
2018-12-23T12:32:11.089Z,9.06
2018-12-23T12:34:40.626Z,9.05
2018-12-23T12:37:10.093Z,9.00
2018-12-23T12:39:39.634Z,8.94
2018-12-23T12:42:09.090Z,9.14
2018-12-23T12:44:38.605Z,8.78
2018-12-23T12:47:08.042Z,9.00
2018-12-23T12:49:37.548Z,9.05
2018-12-23T12:52:07.038Z,9.07
2018-12-23T12:54:36.552Z,9.08
2018-12-23T12:57:06.126Z,9.08
2018-12-23T12:59:35.594Z,9.05
2018-12-23T13:02:05.147Z,8.97
2018-12-23T13:04:34.712Z,9.02
2018-12-23T13:07:04.407Z,9.07
2018-12-23T13:09:33.955Z,8.79
2018-12-23T13:12:03.773Z,8.86
2018-12-23T13:14:33.313Z,9.02
2018-12-23T13:17:03.476Z,9.11
2018-12-23T13:19:34.265Z,9.12
2018-12-23T13:22:06.045Z,8.95
2018-12-23T13:24:36.234Z,9.07
2018-12-23T13:27:05.762Z,8.85
2018-12-23T13:29:35.522Z,9.01
2018-12-23T13:32:09.526Z,9.10
2018-12-23T13:34:41.007Z,9.07
2018-12-23T13:37:16.096Z,9.02
2018-12-23T13:39:47.624Z,9.08
2018-12-23T13:42:50.526Z,9.06
2018-12-23T13:46:03.105Z,9.14
2018-12-23T13:49:18.374Z,9.16
2018-12-23T13:52:16.817Z,9.04
2018-12-23T13:55:22.915Z,9.16
2018-12-23T13:58:07.920Z,9.08
2018-12-23T14:01:36.766Z,9.14
2018-12-23T14:04:39.441Z,9.18
2018-12-23T14:07:51.495Z,9.02
2018-12-23T14:10:46.782Z,8.94
2018-12-23T14:13:16.295Z,8.89
2018-12-23T14:15:48.410Z,8.96
2018-12-23T14:18:17.898Z,9.03
2018-12-23T14:20:51.132Z,9.00
2018-12-23T14:23:22.399Z,9.16
2018-12-23T14:25:51.818Z,9.23
2018-12-23T14:28:23.353Z,9.17
2018-12-23T14:30:52.785Z,9.27
2018-12-23T14:33:23.605Z,9.23
2018-12-23T14:35:53.171Z,9.29
2018-12-23T14:38:22.759Z,9.08
2018-12-23T14:40:52.333Z,9.15
2018-12-23T14:43:21.807Z,9.23
2018-12-23T14:45:51.259Z,9.19
2018-12-23T14:48:20.933Z,9.12
2018-12-23T14:50:50.454Z,9.10
2018-12-23T14:53:20.388Z,9.01
2018-12-23T14:55:49.899Z,9.09
2018-12-23T14:58:19.398Z,8.99
2018-12-23T15:00:48.899Z,9.18
2018-12-23T15:03:21.194Z,9.25
2018-12-23T15:05:50.664Z,9.13
2018-12-23T15:08:20.289Z,9.02
2018-12-23T15:10:49.772Z,9.10
2018-12-23T15:13:19.367Z,9.13
2018-12-23T15:15:49.022Z,9.76
2018-12-23T15:18:18.524Z,9.35
2018-12-23T15:20:48.138Z,9.20
2018-12-23T15:23:17.709Z,9.19
2018-12-23T15:25:49.050Z,8.99
2018-12-23T15:28:18.627Z,9.02
2018-12-23T15:30:48.117Z,9.10
2018-12-23T15:33:17.588Z,9.02
2018-12-23T15:35:48.514Z,9.02
2018-12-23T15:38:17.967Z,9.64
2018-12-23T15:40:47.473Z,9.59
2018-12-23T15:43:16.977Z,9.31
2018-12-23T15:45:46.480Z,9.16
2018-12-23T15:48:16.025Z,9.23
2018-12-23T15:50:45.528Z,9.15
2018-12-23T15:53:17.514Z,9.17
2018-12-23T15:55:47.060Z,9.20
2018-12-23T15:58:16.536Z,9.11
2018-12-23T16:00:46.057Z,9.31
2018-12-23T16:03:18.876Z,9.35
2018-12-23T16:05:48.446Z,9.38
2018-12-23T16:08:19.281Z,9.33
2018-12-23T16:10:48.793Z,9.37
2018-12-23T16:13:19.834Z,9.48
2018-12-23T16:15:51.631Z,9.52
2018-12-23T16:18:21.219Z,9.61
2018-12-23T16:20:50.728Z,9.45
2018-12-23T16:23:20.231Z,9.53
2018-12-23T16:25:51.390Z,9.56
2018-12-23T16:28:21.697Z,9.56
2018-12-23T16:30:51.255Z,9.58
2018-12-23T16:33:20.933Z,9.65
2018-12-23T16:35:50.451Z,9.68
2018-12-23T16:38:22.295Z,9.73
2018-12-23T16:40:52.265Z,9.81
2018-12-23T16:43:23.094Z,9.76
2018-12-23T16:45:52.646Z,9.79
2018-12-23T16:48:22.145Z,9.93
2018-12-23T16:50:51.650Z,10.13
2018-12-23T16:53:21.195Z,10.20
2018-12-23T16:55:50.751Z,10.41
2018-12-23T16:58:20.271Z,10.41
2018-12-23T17:00:49.717Z,10.53
2018-12-23T17:03:19.234Z,10.72
2018-12-23T17:05:48.744Z,10.95
2018-12-23T17:08:18.245Z,10.87
2018-12-23T17:10:47.810Z,10.95
2018-12-23T17:13:17.324Z,11.00
2018-12-23T17:15:46.833Z,11.12
2018-12-23T17:18:16.410Z,11.19
2018-12-23T17:20:45.904Z,11.14
2018-12-23T17:23:15.458Z,11.22
2018-12-23T17:25:44.931Z,11.37
2018-12-23T17:28:14.556Z,11.39
2018-12-23T17:30:44.011Z,11.34
2018-12-23T17:33:13.594Z,11.46
2018-12-23T17:35:43.064Z,11.42
2018-12-23T17:38:12.612Z,11.44
2018-12-23T17:40:42.896Z,11.48
2018-12-23T17:43:12.371Z,11.45
2018-12-23T17:45:44.295Z,11.53
2018-12-23T17:48:15.079Z,11.57
2018-12-23T17:50:44.559Z,11.58
2018-12-23T17:53:14.111Z,11.68
2018-12-23T17:55:43.786Z,11.61
2018-12-23T17:58:13.332Z,11.67
2018-12-23T18:00:44.987Z,11.73
2018-12-23T18:03:14.479Z,11.73
2018-12-23T18:05:43.898Z,11.68
2018-12-23T18:08:16.157Z,11.59
2018-12-23T18:10:45.785Z,11.77
2018-12-23T18:13:15.234Z,11.89
2018-12-23T18:15:44.716Z,11.80
2018-12-23T18:18:14.187Z,11.82
2018-12-23T18:20:43.680Z,11.89
2018-12-23T18:23:13.184Z,11.84
2018-12-23T18:25:43.680Z,11.89
2018-12-23T18:28:13.158Z,11.91
2018-12-23T18:30:44.003Z,11.86
2018-12-23T18:33:13.439Z,11.90
2018-12-23T18:35:42.950Z,11.89
2018-12-23T18:38:12.390Z,11.89
2018-12-23T18:40:41.897Z,11.93
2018-12-23T18:43:11.337Z,11.94
2018-12-23T18:45:43.035Z,11.94
2018-12-23T18:48:12.527Z,11.91
2018-12-23T18:50:44.451Z,11.93
2018-12-23T18:53:13.942Z,11.91
2018-12-23T18:55:43.493Z,11.93
2018-12-23T18:58:13.121Z,11.87
2018-12-23T19:00:45.745Z,11.95
2018-12-23T19:03:15.278Z,12.04
2018-12-23T19:05:44.749Z,12.02
2018-12-23T19:08:18.639Z,12.05
2018-12-23T19:11:19.261Z,12.01
2018-12-23T19:14:24.288Z,12.04
2018-12-23T19:17:46.745Z,12.05
2018-12-23T19:20:47.791Z,12.07
2018-12-23T19:23:43.663Z,12.12
2018-12-23T19:27:01.969Z,12.12
2018-12-23T19:30:09.722Z,12.09
2018-12-23T19:33:10.710Z,12.10
2018-12-23T19:36:14.664Z,12.11
2018-12-23T19:39:05.350Z,12.04
2018-12-23T19:42:28.538Z,12.11
2018-12-23T19:45:38.044Z,12.16
2018-12-23T19:48:45.032Z,12.15
2018-12-23T19:52:10.910Z,12.17
2018-12-23T19:54:58.157Z,12.19
2018-12-23T19:58:00.147Z,12.23
2018-12-23T20:01:08.648Z,12.23
2018-12-23T20:04:17.183Z,12.25
2018-12-23T20:07:36.589Z,12.31
2018-12-23T20:10:49.989Z,12.29
2018-12-23T20:14:18.694Z,12.28
2018-12-23T20:17:34.964Z,12.29
2018-12-23T20:20:26.306Z,12.25
2018-12-23T20:23:27.895Z,12.31
2018-12-23T20:26:48.948Z,12.28
2018-12-23T20:29:54.016Z,12.32
2018-12-23T20:32:37.432Z,12.27
2018-12-23T20:35:25.661Z,12.33
2018-12-23T20:38:38.946Z,12.27
2018-12-23T20:41:46.525Z,12.31
2018-12-23T20:45:01.374Z,12.37
2018-12-23T20:48:30.129Z,12.39
2018-12-23T20:51:43.053Z,12.41
2018-12-23T20:54:48.804Z,12.38
2018-12-23T21:01:36.750Z,12.26
2018-12-23T21:04:33.886Z,12.39
2018-12-23T21:07:49.719Z,12.45
2018-12-23T21:11:15.905Z,12.41
2018-12-23T21:14:15.121Z,12.41
2018-12-23T21:20:23.674Z,12.50
2018-12-23T21:23:06.357Z,12.48
2018-12-23T21:26:12.175Z,12.51
2018-12-23T21:29:28.715Z,12.38
2018-12-23T21:32:24.634Z,12.39
2018-12-23T21:35:31.819Z,12.40
2018-12-23T21:38:41.557Z,12.31
2018-12-23T21:41:55.014Z,12.30
2018-12-23T21:44:42.577Z,12.26
2018-12-23T21:47:46.342Z,12.36
2018-12-23T21:51:05.933Z,12.32
2018-12-23T21:53:59.480Z,12.30
2018-12-23T21:57:25.240Z,12.32
2018-12-23T22:00:35.146Z,12.25
2018-12-23T22:03:50.614Z,12.21
2018-12-23T22:06:42.162Z,12.17
2018-12-23T22:09:38.826Z,12.14
2018-12-23T22:12:31.709Z,12.14
2018-12-23T22:15:02.261Z,12.20
2018-12-23T22:17:31.695Z,12.21
2018-12-23T22:20:01.241Z,12.20
2018-12-23T22:22:30.772Z,12.12
2018-12-23T22:25:00.300Z,12.17
2018-12-23T22:27:29.773Z,12.20
2018-12-23T22:29:59.291Z,12.21
2018-12-23T22:32:28.811Z,12.29
2018-12-23T22:34:58.248Z,12.34
2018-12-23T22:37:27.775Z,12.34
2018-12-23T22:39:57.232Z,12.34
2018-12-23T22:42:27.965Z,12.33
2018-12-23T22:44:57.469Z,12.32
2018-12-23T22:47:27.006Z,12.27
2018-12-23T22:49:58.591Z,12.25
2018-12-23T22:52:28.070Z,12.22
2018-12-23T22:54:57.533Z,12.26
2018-12-23T22:57:27.300Z,12.32
2018-12-23T22:59:57.035Z,12.26
2018-12-23T23:02:27.058Z,12.32
2018-12-23T23:04:56.683Z,12.38
2018-12-23T23:07:26.213Z,12.36
2018-12-23T23:09:56.133Z,12.29
2018-12-23T23:12:29.565Z,12.35
2018-12-23T23:15:03.100Z,12.30
2018-12-23T23:17:32.854Z,12.30
2018-12-23T23:20:02.439Z,12.30
2018-12-23T23:22:32.033Z,12.23
2018-12-23T23:25:01.519Z,12.34
2018-12-23T23:27:31.058Z,12.34
2018-12-23T23:30:00.498Z,12.30
2018-12-23T23:32:32.282Z,12.40
2018-12-23T23:35:05.396Z,12.39
2018-12-23T23:37:34.973Z,12.47
2018-12-23T23:40:04.457Z,12.46
2018-12-23T23:42:34.015Z,12.46
2018-12-23T23:45:06.145Z,12.52
2018-12-23T23:47:35.699Z,12.42
2018-12-23T23:50:05.763Z,12.48
2018-12-23T23:52:35.217Z,12.51
2018-12-23T23:55:04.828Z,12.49
2018-12-23T23:57:34.301Z,12.50
